Time;durP1;ratioP1;P1;durP2;ratioP2;P2;SDS_P1;SDS_P2;PMS_P1;PMS_P2;Temp;Humidity;BMP_temperature;BMP_pressure;BME280_temperature;BME280_humidity;BME280_pressure;Samples;Min_cycle;Max_cycle;Signal;HPM_P1;HPM_P2
2021/07/24 00:01:05;;;;;;;10.82;3.65;;;;;;;22.04;43.75;98579.69;5040465;28;20064;-71
2021/07/24 00:03:31;;;;;;;7.93;3.28;;;;;;;22.07;43.77;98578.13;5048172;28;20053;-72
2021/07/24 00:05:57;;;;;;;10.32;4.38;;;;;;;22.07;43.80;98586.47;5047967;28;20037;-70
2021/07/24 00:08:23;;;;;;;11.75;3.95;;;;;;;21.94;44.13;98583.16;5040994;28;20140;-69
2021/07/24 00:10:51;;;;;;;12.03;4.20;;;;;;;21.83;44.58;98577.47;5040667;28;20049;-70
2021/07/24 00:13:17;;;;;;;8.50;3.83;;;;;;;21.73;44.41;98578.16;5042628;28;20356;-70
2021/07/24 00:15:43;;;;;;;11.17;3.77;;;;;;;21.76;44.78;98588.53;5046877;28;20056;-68
2021/07/24 00:18:10;;;;;;;13.38;3.95;;;;;;;21.72;44.50;98582.13;5027098;28;20111;-70
2021/07/24 00:20:35;;;;;;;10.18;3.90;;;;;;;21.78;44.64;98583.38;5045209;28;20041;-70
2021/07/24 00:23:03;;;;;;;10.38;4.32;;;;;;;21.81;44.28;98580.66;5043767;28;20052;-68
2021/07/24 00:25:29;;;;;;;12.00;3.92;;;;;;;21.79;44.69;98587.75;5032601;28;20513;-71
2021/07/24 00:27:57;;;;;;;12.73;4.07;;;;;;;21.82;44.83;98589.78;5042200;28;20132;-70
2021/07/24 00:30:22;;;;;;;13.85;4.05;;;;;;;21.71;44.62;98581.31;5013344;28;20054;-69
2021/07/24 00:32:55;;;;;;;15.05;4.05;;;;;;;21.68;44.64;98587.66;5039813;28;20038;-69
2021/07/24 00:35:22;;;;;;;10.38;3.90;;;;;;;21.67;44.76;98602.72;5014205;28;20053;-70
2021/07/24 00:37:55;;;;;;;10.80;4.18;;;;;;;21.56;45.33;98597.03;5047236;28;20098;-70
2021/07/24 00:40:25;;;;;;;13.15;4.28;;;;;;;21.47;45.27;98591.75;5030117;28;20042;-70
2021/07/24 00:42:53;;;;;;;10.98;4.05;;;;;;;21.37;45.68;98595.97;5042674;28;20047;-69
2021/07/24 00:45:20;;;;;;;9.45;3.58;;;;;;;21.38;45.60;98597.56;5019999;28;20037;-70
2021/07/24 00:47:49;;;;;;;14.60;4.03;;;;;;;21.34;45.72;98593.94;5037534;28;20045;-69
2021/07/24 00:50:23;;;;;;;15.50;7.63;;;;;;;21.37;45.37;98600.75;5046543;28;20139;-69
2021/07/24 00:52:49;;;;;;;19.88;10.50;;;;;;;21.35;45.39;98590.00;5040923;28;20046;-68
2021/07/24 00:55:16;;;;;;;21.90;12.20;;;;;;;21.29;45.66;98596.25;5038449;28;20060;-69
2021/07/24 00:57:44;;;;;;;;;;;;;;;21.27;45.82;98595.84;5039612;28;20361;-70
2021/07/24 01:00:12;;;;;;;22.17;11.45;;;;;;;21.20;45.84;98597.34;5032877;28;19932;-68
2021/07/24 01:02:40;;;;;;;21.45;10.88;;;;;;;21.17;46.26;98605.63;5028679;28;20510;-71
2021/07/24 01:05:08;;;;;;;29.50;14.02;;;;;;;21.07;46.40;98599.56;5045486;28;20048;-71
2021/07/24 01:07:38;;;;;;;40.95;25.27;;;;;;;21.08;46.52;98603.13;5045801;28;20065;-71
2021/07/24 01:10:05;;;;;;;48.33;30.83;;;;;;;21.06;46.50;98606.28;5037784;28;20049;-70
2021/07/24 01:12:32;;;;;;;52.72;34.10;;;;;;;20.96;46.71;98613.28;5036062;28;20049;-71
2021/07/24 01:15:01;;;;;;;60.05;35.38;;;;;;;20.92;47.00;98608.88;5037676;28;20046;-71
2021/07/24 01:17:27;;;;;;;44.70;28.90;;;;;;;20.92;46.79;98612.44;5036484;28;20048;-71
2021/07/24 01:19:55;;;;;;;40.75;27.13;;;;;;;20.94;46.84;98615.63;5036262;28;20064;-69
2021/07/24 01:22:25;;;;;;;43.72;26.98;;;;;;;20.96;47.04;98618.84;5025159;28;20041;-69
2021/07/24 01:24:53;;;;;;;42.80;27.65;;;;;;;20.90;46.82;98600.88;5045312;28;20422;-70
2021/07/24 01:27:19;;;;;;;35.53;21.37;;;;;;;20.89;47.29;98615.13;5036490;28;20044;-71
2021/07/24 01:29:46;;;;;;;30.42;19.25;;;;;;;20.85;47.35;98619.84;5031364;28;20059;-71
2021/07/24 01:32:21;;;;;;;23.17;14.75;;;;;;;20.97;46.97;98625.19;5021042;28;20029;-69
2021/07/24 01:34:48;;;;;;;26.80;14.68;;;;;;;21.00;47.09;98626.44;5038542;28;20069;-70
2021/07/24 01:37:17;;;;;;;28.33;17.13;;;;;;;20.94;47.28;98628.72;5040062;28;20424;-69
2021/07/24 01:39:46;;;;;;;32.78;21.45;;;;;;;20.91;46.96;98623.91;5041438;28;20037;-70
2021/07/24 01:42:12;;;;;;;33.55;22.50;;;;;;;20.82;47.20;98626.94;5032989;28;20052;-70
2021/07/24 01:44:46;;;;;;;28.60;18.00;;;;;;;20.77;47.15;98627.22;5039175;28;20055;-69
2021/07/24 01:47:12;;;;;;;26.77;17.08;;;;;;;20.75;47.47;98630.38;5041226;28;20098;-70
2021/07/24 01:52:49;;;;;;;21.00;12.80;;;;;;;20.65;47.78;98622.69;5047482;28;20060;-70
2021/07/24 01:55:21;;;;;;;20.85;11.48;;;;;;;20.68;47.67;98638.59;5036131;28;20076;-70
2021/07/24 01:58:00;;;;;;;26.00;12.40;;;;;;;20.71;47.39;98626.75;5044018;28;20421;-70
2021/07/24 02:00:34;;;;;;;25.08;13.30;;;;;;;20.65;47.61;98631.81;5023557;28;20045;-69
2021/07/24 02:03:15;;;;;;;21.48;11.70;;;;;;;20.61;47.35;98633.72;5038750;28;20091;-70
2021/07/24 02:06:02;;;;;;;16.90;9.98;;;;;;;20.59;47.83;98643.59;5044350;28;20198;-69
2021/07/24 02:08:32;;;;;;;15.68;7.72;;;;;;;20.67;47.34;98648.91;5031697;28;20139;-71
2021/07/24 02:11:02;;;;;;;16.30;7.35;;;;;;;20.75;46.97;98643.47;5035663;28;20045;-70
2021/07/24 02:13:31;;;;;;;13.07;6.53;;;;;;;20.80;47.04;98649.56;5050798;28;20441;-70
2021/07/24 02:15:57;;;;;;;11.35;5.50;;;;;;;20.86;46.56;98652.81;5043213;28;20053;-68
2021/07/24 02:18:24;;;;;;;;;;;;;;;20.94;46.47;98651.75;5024821;28;20595;-70
2021/07/24 02:21:05;;;;;;;11.68;4.80;;;;;;;20.92;46.53;98650.53;5042707;28;19925;-70
2021/07/24 02:23:32;;;;;;;10.45;4.43;;;;;;;20.76;46.69;98651.44;5041301;28;20041;-71
2021/07/24 02:25:58;;;;;;;11.10;4.30;;;;;;;20.76;46.81;98659.78;5015727;28;20052;-70
2021/07/24 02:28:25;;;;;;;14.25;4.38;;;;;;;20.72;46.63;98647.78;5033592;28;20056;-71
2021/07/24 02:30:52;;;;;;;10.88;4.45;;;;;;;20.80;46.83;98663.44;5043201;28;20047;-71
2021/07/24 02:33:19;;;;;;;9.55;4.40;;;;;;;20.75;46.60;98658.16;5041989;28;20071;-72
2021/07/24 02:35:45;;;;;;;10.10;4.50;;;;;;;20.67;46.69;98653.66;5039061;28;20049;-74
2021/07/24 02:38:18;;;;;;;11.63;4.38;;;;;;;20.66;47.01;98663.16;5036881;28;20044;-74
2021/07/24 02:40:46;;;;;;;10.73;4.50;;;;;;;20.72;46.92;98667.22;5036396;28;20045;-74
2021/07/24 02:43:15;;;;;;;11.85;3.97;;;;;;;20.72;46.95;98667.22;5044234;28;20038;-74
2021/07/24 02:45:44;;;;;;;13.05;4.25;;;;;;;20.69;46.96;98667.97;5038063;28;20065;-75
2021/07/24 02:48:11;;;;;;;12.15;5.40;;;;;;;20.64;46.95;98676.63;5027258;28;20107;-75
2021/07/24 02:50:47;;;;;;;15.85;5.70;;;;;;;20.66;47.29;98671.50;5020015;28;20045;-75
2021/07/24 02:53:13;;;;;;;13.38;5.35;;;;;;;20.56;46.86;98667.38;5041435;28;20095;-74
2021/07/24 02:55:39;;;;;;;14.70;5.53;;;;;;;20.63;46.97;98680.56;5046004;28;20055;-74
2021/07/24 02:58:06;;;;;;;18.23;8.57;;;;;;;20.59;47.03;98679.69;5040558;28;20099;-74
2021/07/24 03:00:34;;;;;;;14.93;6.53;;;;;;;20.57;47.12;98682.84;5049026;28;20041;-74
2021/07/24 03:03:01;;;;;;;16.88;6.45;;;;;;;20.51;47.44;98668.47;5038756;28;20049;-75
2021/07/24 03:05:27;;;;;;;18.00;6.43;;;;;;;20.59;47.07;98682.47;5041938;28;20132;-74
2021/07/24 03:07:53;;;;;;;20.13;9.40;;;;;;;20.55;47.73;98685.19;5036908;28;20053;-74
2021/07/24 03:10:19;;;;;;;28.08;14.73;;;;;;;20.55;47.73;98685.19;5046788;28;20265;-74
2021/07/24 03:12:45;;;;;;;21.45;9.98;;;;;;;20.59;47.36;98696.34;5036595;28;20458;-74
2021/07/24 03:15:11;;;;;;;28.30;15.75;;;;;;;20.63;47.33;98688.91;5048258;28;20575;-74
2021/07/24 03:17:38;;;;;;;24.63;10.80;;;;;;;20.67;47.43;98693.31;5033886;28;20037;-74
2021/07/24 03:20:06;;;;;;;21.05;6.63;;;;;;;20.67;47.15;98689.75;5038178;28;20519;-73
2021/07/24 03:22:33;;;;;;;13.57;4.90;;;;;;;20.69;47.10;98690.19;5045128;28;20097;-75
2021/07/24 03:25:00;;;;;;;17.80;4.00;;;;;;;20.71;47.04;98687.06;5046222;28;20076;-74
2021/07/24 03:27:26;;;;;;;16.70;4.00;;;;;;;20.74;46.95;98687.09;5031776;28;20049;-75
2021/07/24 03:29:52;;;;;;;13.80;4.05;;;;;;;20.71;46.91;98689.81;5036847;28;20047;-74
2021/07/24 03:32:18;;;;;;;13.88;3.97;;;;;;;20.70;46.57;98686.22;5037023;28;20049;-74
2021/07/24 03:34:44;;;;;;;10.10;3.75;;;;;;;20.68;46.46;98694.13;5019124;28;20041;-74
2021/07/24 03:37:12;;;;;;;14.23;4.10;;;;;;;20.63;46.42;98691.69;5035314;28;20092;-74
2021/07/24 03:39:38;;;;;;;9.30;3.38;;;;;;;20.65;46.30;98700.44;5033427;28;20141;-73
2021/07/24 03:42:04;;;;;;;12.27;3.45;;;;;;;20.72;46.12;98706.09;5039235;28;20048;-74
2021/07/24 03:44:30;;;;;;;16.25;3.30;;;;;;;20.74;45.47;98698.19;5036943;28;20045;-73
2021/07/24 03:46:56;;;;;;;12.40;3.40;;;;;;;20.73;45.64;98712.47;5032687;28;20410;-74
2021/07/24 03:49:22;;;;;;;13.63;3.20;;;;;;;20.72;45.18;98713.66;5047046;28;20041;-73
2021/07/24 03:51:48;;;;;;;10.35;3.08;;;;;;;20.74;45.33;98714.06;5043891;28;20593;-75
2021/07/24 03:54:15;;;;;;;13.40;3.20;;;;;;;20.70;45.21;98725.09;5045786;28;20044;-74
2021/07/24 03:56:41;;;;;;;;;;;;;;;20.76;45.43;98720.88;5016055;28;20482;-74
2021/07/24 03:59:07;;;;;;;8.93;3.00;;;;;;;20.59;45.47;98722.16;5036842;28;19960;-74
2021/07/24 04:01:33;;;;;;;8.23;2.65;;;;;;;20.63;45.35;98731.34;5044577;28;20049;-75
2021/07/24 04:03:59;;;;;;;10.73;3.05;;;;;;;20.68;45.43;98735.78;5046220;28;20261;-74
2021/07/24 04:06:26;;;;;;;9.35;3.03;;;;;;;20.69;45.52;98735.44;5044719;28;20552;-75
2021/07/24 04:08:55;;;;;;;8.50;3.20;;;;;;;20.82;45.37;98738.84;5035813;28;20471;-76
2021/07/24 04:11:24;;;;;;;11.10;2.85;;;;;;;20.86;44.91;98741.69;5036191;28;20127;-75
2021/07/24 04:13:50;;;;;;;12.32;3.10;;;;;;;20.88;45.08;98747.69;5037161;28;20056;-75
2021/07/24 04:16:17;;;;;;;11.55;3.30;;;;;;;20.86;44.99;98741.69;5040155;28;20041;-75
2021/07/24 04:18:43;;;;;;;9.30;2.97;;;;;;;20.97;44.90;98756.56;5033493;28;20045;-75
2021/07/24 04:21:10;;;;;;;10.45;3.03;;;;;;;20.95;44.72;98752.56;5036358;28;20048;-75
2021/07/24 04:23:36;;;;;;;7.65;2.92;;;;;;;20.96;45.03;98762.50;5032147;28;20072;-74
2021/07/24 04:26:02;;;;;;;10.47;3.13;;;;;;;20.99;44.91;98761.75;5032727;28;20049;-76
2021/07/24 04:28:31;;;;;;;8.43;2.85;;;;;;;21.10;44.63;98767.50;5042113;28;21772;-76
2021/07/24 04:30:57;;;;;;;8.68;3.22;;;;;;;21.12;44.59;98762.34;5022896;28;20045;-75
2021/07/24 04:33:23;;;;;;;10.27;3.33;;;;;;;21.15;45.04;98769.16;5039731;28;20049;-75
2021/07/24 04:35:49;;;;;;;12.18;3.60;;;;;;;21.13;44.94;98761.19;5018804;28;20099;-74
2021/07/24 04:38:17;;;;;;;15.40;3.42;;;;;;;21.23;45.06;98779.22;5043490;28;20059;-75
2021/07/24 04:40:44;;;;;;;11.02;3.83;;;;;;;21.26;45.08;98775.69;5051093;28;20056;-75
2021/07/24 04:43:11;;;;;;;14.32;3.88;;;;;;;21.32;44.79;98773.41;5047258;28;20053;-75
2021/07/24 04:45:41;;;;;;;15.52;3.63;;;;;;;21.34;44.70;98779.41;5040300;28;20049;-72
2021/07/24 04:48:07;;;;;;;10.07;3.80;;;;;;;21.33;44.85;98777.81;5019222;28;20068;-74
2021/07/24 04:50:34;;;;;;;8.88;3.10;;;;;;;21.29;45.04;98783.28;5032515;28;20501;-74
2021/07/24 04:53:02;;;;;;;10.02;3.65;;;;;;;21.35;44.79;98787.34;5033417;28;22051;-74
2021/07/24 04:55:29;;;;;;;16.08;3.72;;;;;;;21.35;44.37;98775.44;5041254;28;20581;-74
2021/07/24 04:57:55;;;;;;;8.80;3.38;;;;;;;21.45;44.35;98794.25;5045568;28;20062;-75
2021/07/24 05:00:21;;;;;;;12.25;3.65;;;;;;;21.42;44.60;98789.44;5040387;28;20094;-74
2021/07/24 05:02:49;;;;;;;13.48;3.40;;;;;;;21.49;44.43;98788.75;5018305;28;20041;-75
2021/07/24 05:05:15;;;;;;;14.57;3.13;;;;;;;21.60;44.02;98792.50;5039430;28;20040;-74
2021/07/24 05:07:41;;;;;;;9.10;3.13;;;;;;;21.74;43.80;98797.50;5044477;28;20042;-75
2021/07/24 05:10:09;;;;;;;12.93;3.60;;;;;;;21.79;43.59;98804.72;5033010;28;20501;-74
2021/07/24 05:12:36;;;;;;;12.55;3.75;;;;;;;21.70;43.54;98802.22;5026512;28;20406;-74
2021/07/24 05:15:04;;;;;;;9.98;3.25;;;;;;;21.81;43.41;98802.38;5040657;28;20122;-75
2021/07/24 05:17:29;;;;;;;;;;;;;;;21.89;43.29;98804.09;5050626;28;20128;-75
2021/07/24 05:19:57;;;;;;;13.47;3.10;;;;;;;21.88;42.89;98804.47;5048046;28;20012;-74
2021/07/24 05:22:23;;;;;;;8.68;3.05;;;;;;;21.85;42.75;98805.22;5035408;28;20045;-75
2021/07/24 05:24:49;;;;;;;12.07;3.22;;;;;;;21.95;42.63;98805.34;5034410;28;20461;-74
2021/07/24 05:27:15;;;;;;;10.85;2.70;;;;;;;21.99;42.51;98805.41;5043638;28;20049;-74
2021/07/24 05:29:42;;;;;;;9.10;2.83;;;;;;;22.10;42.27;98808.34;5044736;28;20041;-74
2021/07/24 05:32:08;;;;;;;9.48;3.00;;;;;;;22.24;42.02;98807.72;5035481;28;20075;-74
2021/07/24 05:34:35;;;;;;;10.70;2.80;;;;;;;22.27;41.60;98811.72;5034386;28;20137;-75
2021/07/24 05:37:02;;;;;;;12.30;2.65;;;;;;;22.23;41.15;98809.72;5032712;28;20135;-76
2021/07/24 05:39:28;;;;;;;10.95;2.60;;;;;;;22.35;41.09;98813.44;5041365;28;20114;-75
2021/07/24 05:41:55;;;;;;;15.70;2.92;;;;;;;22.31;41.19;98815.34;5047984;28;20505;-76
2021/07/24 05:44:21;;;;;;;12.60;2.60;;;;;;;22.35;40.63;98819.00;5045406;28;20049;-75
2021/07/24 05:46:47;;;;;;;9.88;2.88;;;;;;;22.38;40.44;98813.47;5042199;28;20482;-75
2021/07/24 05:49:14;;;;;;;10.98;2.42;;;;;;;22.29;40.37;98818.53;5035670;28;20513;-75
2021/07/24 05:51:40;;;;;;;11.32;2.78;;;;;;;22.42;40.50;98819.09;5035973;28;20139;-75
2021/07/24 05:54:08;;;;;;;14.27;2.45;;;;;;;22.47;40.15;98820.75;5053022;28;20517;-75
2021/07/24 05:56:35;;;;;;;9.43;2.40;;;;;;;22.52;39.73;98820.41;5051480;28;20103;-74
2021/07/24 05:59:02;;;;;;;6.63;2.00;;;;;;;22.55;39.75;98822.44;5045995;28;20045;-74
2021/07/24 06:01:28;;;;;;;7.38;2.13;;;;;;;22.66;39.99;98822.59;5026412;28;20056;-75
2021/07/24 06:03:54;;;;;;;7.05;2.20;;;;;;;22.77;39.35;98817.91;5034744;28;20095;-75
2021/07/24 06:06:20;;;;;;;9.30;2.95;;;;;;;22.76;39.40;98812.75;5020777;28;20041;-75
2021/07/24 06:08:46;;;;;;;7.00;2.13;;;;;;;22.78;39.19;98805.59;5047378;28;20045;-75
2021/07/24 06:11:14;;;;;;;7.07;2.40;;;;;;;22.96;39.19;98821.72;5038405;28;20041;-74
2021/07/24 06:13:41;;;;;;;11.88;2.35;;;;;;;23.01;38.78;98832.50;5044330;28;20076;-75
2021/07/24 06:16:09;;;;;;;17.45;2.67;;;;;;;23.01;38.24;98829.72;5022577;28;20069;-74
2021/07/24 06:18:35;;;;;;;9.13;2.25;;;;;;;23.01;38.47;98826.94;5039338;28;20099;-75
2021/07/24 06:21:01;;;;;;;9.83;2.30;;;;;;;23.12;38.46;98832.59;5036500;28;20053;-72
2021/07/24 06:23:27;;;;;;;10.25;2.15;;;;;;;23.14;38.23;98826.66;5044869;28;20044;-75
2021/07/24 06:25:54;;;;;;;9.70;2.40;;;;;;;23.14;37.95;98819.06;5056186;28;20041;-75
2021/07/24 06:28:24;;;;;;;6.77;2.20;;;;;;;23.24;37.52;98839.88;5047812;28;20041;-75
2021/07/24 06:30:53;;;;;;;7.38;2.03;;;;;;;23.33;37.19;98837.59;5052575;28;20068;-75
2021/07/24 06:33:19;;;;;;;6.00;2.15;;;;;;;23.39;37.16;98851.19;5050358;28;20040;-75
2021/07/24 06:35:45;;;;;;;9.35;2.40;;;;;;;23.42;36.80;98844.88;5047865;28;20143;-74
2021/07/24 06:38:12;;;;;;;7.45;2.25;;;;;;;23.46;36.88;98846.47;5044405;28;20041;-73
2021/07/24 06:40:38;;;;;;;5.43;2.13;;;;;;;23.40;36.37;98833.25;5027272;28;20037;-73
2021/07/24 06:43:04;;;;;;;7.90;2.10;;;;;;;23.51;36.13;98848.09;5045630;28;20075;-73
2021/07/24 06:45:31;;;;;;;12.23;2.50;;;;;;;23.57;36.04;98854.94;5046956;28;20055;-72
2021/07/24 06:47:57;;;;;;;9.93;2.60;;;;;;;23.59;35.49;98851.75;5045861;28;20045;-73
2021/07/24 06:50:24;;;;;;;9.75;2.63;;;;;;;23.62;35.23;98853.75;5060621;28;20044;-72
2021/07/24 06:52:50;;;;;;;8.60;2.67;;;;;;;23.61;35.63;98850.19;5059210;28;20068;-73
2021/07/24 06:55:16;;;;;;;8.57;2.40;;;;;;;23.60;35.23;98851.38;5045663;28;20516;-73
2021/07/24 06:57:42;;;;;;;12.20;2.70;;;;;;;23.60;35.17;98854.16;5028965;28;20053;-75
2021/07/24 07:00:09;;;;;;;11.68;2.67;;;;;;;23.57;35.43;98852.16;5034091;28;20347;-73
2021/07/24 07:02:36;;;;;;;;;;;;;;;23.64;35.29;98859.75;5040159;28;21806;-74
2021/07/24 07:05:03;;;;;;;9.23;2.40;;;;;;;23.61;34.93;98846.59;5039887;28;19928;-74
2021/07/24 07:07:29;;;;;;;12.27;2.55;;;;;;;23.51;34.82;98850.91;5048610;28;20132;-74
2021/07/24 07:09:55;;;;;;;11.85;2.88;;;;;;;23.44;34.65;98845.28;5046418;28;20041;-73
2021/07/24 07:12:21;;;;;;;10.50;2.55;;;;;;;23.42;34.84;98853.22;5035703;28;20048;-75
2021/07/24 07:14:47;;;;;;;9.75;2.25;;;;;;;23.58;35.11;98866.91;5043945;28;20052;-73
2021/07/24 07:17:15;;;;;;;7.80;1.90;;;;;;;23.64;35.01;98857.78;5044383;28;20504;-73
2021/07/24 07:19:42;;;;;;;7.10;2.05;;;;;;;23.68;34.96;98859.78;5046978;28;20128;-74
2021/07/24 07:22:08;;;;;;;8.50;2.40;;;;;;;23.74;34.30;98855.47;5042273;28;20060;-73
2021/07/24 07:24:35;;;;;;;5.95;2.10;;;;;;;23.81;34.08;98861.09;5035805;28;20041;-73
2021/07/24 07:27:01;;;;;;;11.38;2.30;;;;;;;23.79;33.81;98863.47;5021241;28;20041;-74
2021/07/24 07:29:27;;;;;;;9.98;2.90;;;;;;;23.78;34.01;98868.25;5033869;28;20510;-74
2021/07/24 07:31:53;;;;;;;8.35;2.28;;;;;;;23.74;33.87;98859.03;5043216;28;20048;-72
2021/07/24 07:34:20;;;;;;;21.45;2.50;;;;;;;23.82;33.74;98862.69;5037408;28;20127;-72
2021/07/24 07:36:47;;;;;;;17.95;2.30;;;;;;;23.89;33.03;98862.75;5043516;28;20143;-71
2021/07/24 07:39:13;;;;;;;8.25;2.13;;;;;;;23.88;34.88;98861.16;5048087;28;20061;-70
2021/07/24 07:41:39;;;;;;;10.77;2.47;;;;;;;23.90;35.11;98871.91;5046256;28;20128;-70
2021/07/24 07:44:06;;;;;;;11.03;2.40;;;;;;;23.95;34.63;98871.53;5053688;28;20041;-70
2021/07/24 07:46:32;;;;;;;7.13;2.28;;;;;;;24.04;34.02;98871.22;5040131;28;20045;-70
2021/07/24 07:48:59;;;;;;;9.13;2.38;;;;;;;24.01;33.86;98866.41;5051762;28;20045;-70
2021/07/24 07:51:25;;;;;;;9.35;2.00;;;;;;;24.08;33.97;98875.66;5052874;28;20040;-71
2021/07/24 07:53:52;;;;;;;10.67;2.10;;;;;;;24.16;33.40;98884.09;5045889;28;20049;-70
2021/07/24 07:56:18;;;;;;;16.13;2.15;;;;;;;24.16;32.97;98881.28;5056834;28;20044;-71
2021/07/24 07:58:45;;;;;;;10.93;2.30;;;;;;;24.20;32.98;98873.72;5050258;28;20468;-71
2021/07/24 08:01:12;;;;;;;8.75;2.50;;;;;;;24.18;32.68;98878.91;5052927;28;20046;-72
2021/07/24 08:03:46;;;;;;;7.28;2.13;;;;;;;24.20;32.83;98887.69;5033249;28;20496;-72
2021/07/24 08:06:12;;;;;;;16.23;2.28;;;;;;;24.23;32.81;98894.50;5046351;28;20052;-71
2021/07/24 08:08:39;;;;;;;9.87;2.80;;;;;;;24.26;32.75;98885.34;5051155;28;20059;-72
2021/07/24 08:11:06;;;;;;;7.57;2.33;;;;;;;24.20;32.60;98874.53;5042643;28;20107;-72
2021/07/24 08:13:32;;;;;;;10.45;2.33;;;;;;;24.35;32.32;98894.97;5041665;28;20044;-73
2021/07/24 08:15:59;;;;;;;8.85;2.33;;;;;;;24.39;32.14;98885.78;5032128;28;20057;-73
2021/07/24 08:18:25;;;;;;;7.85;2.47;;;;;;;24.40;32.97;98891.00;5045940;28;20575;-73
2021/07/24 08:20:51;;;;;;;11.37;2.60;;;;;;;24.41;33.41;98898.19;5033747;28;20034;-73
2021/07/24 08:23:17;;;;;;;6.40;2.00;;;;;;;24.44;33.21;98902.19;5039065;28;20425;-72
2021/07/24 08:25:44;;;;;;;8.95;2.38;;;;;;;24.45;33.28;98907.38;5044583;28;20065;-71
2021/07/24 08:28:12;;;;;;;5.30;1.85;;;;;;;24.45;33.38;98899.00;5043150;28;20478;-72
2021/07/24 08:30:38;;;;;;;7.88;1.90;;;;;;;24.49;33.10;98904.63;5031851;28;20041;-73
2021/07/24 08:33:05;;;;;;;13.75;2.85;;;;;;;24.53;32.53;98905.41;5046853;28;20118;-73
2021/07/24 08:35:31;;;;;;;7.95;2.20;;;;;;;24.60;32.83;98905.47;5043307;28;20045;-73
2021/07/24 08:37:57;;;;;;;6.38;2.25;;;;;;;24.67;32.74;98913.09;5039375;28;20079;-73
2021/07/24 08:40:23;;;;;;;7.97;2.60;;;;;;;24.74;32.94;98921.50;5033825;28;20045;-73
2021/07/24 08:42:49;;;;;;;7.68;2.45;;;;;;;24.82;33.22;98905.59;5045474;28;20076;-74
2021/07/24 08:45:19;;;;;;;22.05;2.95;;;;;;;24.83;32.72;98912.78;5047220;28;20051;-73
2021/07/24 08:47:45;;;;;;;10.02;2.30;;;;;;;24.83;32.52;98911.97;5052195;28;20095;-72
2021/07/24 08:50:13;;;;;;;8.32;2.58;;;;;;;24.86;32.60;98908.41;5042416;28;20041;-73
2021/07/24 08:52:39;;;;;;;9.82;2.80;;;;;;;24.79;32.99;98925.94;5046518;28;20502;-68
2021/07/24 08:55:07;;;;;;;11.35;3.03;;;;;;;24.78;32.30;98922.31;5036919;28;20048;-66
2021/07/24 08:57:38;;;;;;;11.52;2.92;;;;;;;24.86;32.42;98908.41;5037121;28;20064;-66
2021/07/24 09:00:10;;;;;;;22.13;2.90;;;;;;;24.89;31.97;98916.00;5038432;28;20067;-72
2021/07/24 09:02:47;;;;;;;9.05;2.60;;;;;;;24.94;31.50;98917.59;5044527;28;20045;-71
2021/07/24 09:05:16;;;;;;;8.50;2.55;;;;;;;24.92;31.13;98921.59;5041787;28;20050;-76
2021/07/24 09:07:48;;;;;;;10.43;2.60;;;;;;;24.91;31.18;98914.41;5020261;28;20053;-72
2021/07/24 09:10:17;;;;;;;9.77;2.72;;;;;;;24.96;31.39;98912.41;5028250;28;20053;-71
2021/07/24 09:12:55;;;;;;;16.95;2.40;;;;;;;24.94;31.03;98917.59;5023895;28;20050;-72
2021/07/24 09:15:24;;;;;;;9.10;1.98;;;;;;;25.00;31.15;98910.44;5036595;28;20037;-71
2021/07/24 09:17:52;;;;;;;8.70;2.30;;;;;;;25.02;30.90;98922.81;5017374;28;20564;-72
2021/07/24 09:20:23;;;;;;;7.50;1.95;;;;;;;25.00;30.74;98908.44;5034992;28;20076;-73
2021/07/24 09:22:49;;;;;;;7.70;2.00;;;;;;;25.08;31.04;98919.63;5050095;28;20570;-72
2021/07/24 09:25:17;;;;;;;7.97;2.20;;;;;;;25.15;30.43;98920.44;5043911;28;20111;-73
2021/07/24 09:27:44;;;;;;;7.63;2.10;;;;;;;25.22;30.56;98910.50;5036267;28;20042;-75
2021/07/24 09:30:32;;;;;;;6.40;2.00;;;;;;;25.38;30.00;98924.09;5041522;28;20050;-74
2021/07/24 09:33:04;;;;;;;7.13;1.90;;;;;;;25.53;29.62;98908.19;5031632;28;20486;-72
2021/07/24 09:35:36;;;;;;;7.07;2.00;;;;;;;25.65;29.58;98913.34;5046066;28;20046;-73
2021/07/24 09:38:02;;;;;;;5.05;1.80;;;;;;;25.75;29.71;98922.94;5036621;28;20044;-73
2021/07/24 09:40:28;;;;;;;6.47;2.10;;;;;;;25.83;29.83;98927.38;5045085;28;20044;-72
2021/07/24 09:42:54;;;;;;;8.70;2.33;;;;;;;25.89;29.26;98924.97;5044745;28;20043;-73
2021/07/24 09:45:20;;;;;;;5.78;1.83;;;;;;;26.01;29.05;98929.34;5052362;28;20047;-72
2021/07/24 09:47:47;;;;;;;6.50;1.90;;;;;;;26.09;29.16;98925.34;5051630;28;20046;-72
2021/07/24 09:50:17;;;;;;;8.75;2.03;;;;;;;26.13;29.13;98928.94;5040116;28;20115;-83
2021/07/24 09:52:45;;;;;;;9.65;2.20;;;;;;;26.24;29.38;98926.16;5033570;28;20136;-73
2021/07/24 09:55:18;;;;;;;5.90;1.77;;;;;;;26.32;29.42;98927.75;5047434;28;20045;-73
2021/07/24 09:57:44;;;;;;;8.85;2.05;;;;;;;26.36;28.86;98932.53;5054619;28;20053;-72
2021/07/24 10:00:25;;;;;;;5.68;2.00;;;;;;;26.40;28.97;98924.91;5047099;28;20044;-71
2021/07/24 10:03:02;;;;;;;7.95;2.40;;;;;;;26.26;29.20;98920.16;5049199;28;20037;-72
2021/07/24 10:05:33;;;;;;;6.50;2.33;;;;;;;26.21;29.06;98907.34;5041219;28;20076;-72
2021/07/24 10:08:03;;;;;;;9.23;2.15;;;;;;;26.39;29.03;98929.75;5045007;28;20040;-71
2021/07/24 10:10:30;;;;;;;10.35;2.58;;;;;;;26.46;28.87;98928.94;5041554;28;20576;-72
2021/07/24 10:12:56;;;;;;;5.18;1.85;;;;;;;26.59;28.96;98921.66;5030065;28;20514;-72
2021/07/24 10:15:25;;;;;;;9.48;2.20;;;;;;;26.53;28.49;98926.09;5041283;28;20073;-71
2021/07/24 10:17:52;;;;;;;10.88;2.38;;;;;;;26.30;29.58;98932.16;5039306;28;20144;-73
2021/07/24 10:20:18;;;;;;;7.18;2.30;;;;;;;26.14;29.81;98932.53;5042245;28;20124;-69
2021/07/24 10:22:45;;;;;;;9.43;2.13;;;;;;;26.13;29.66;98940.16;5039167;28;20466;-71
2021/07/24 10:25:12;;;;;;;7.10;2.45;;;;;;;26.10;29.12;98929.75;5033259;28;20054;-70
2021/07/24 10:27:41;;;;;;;5.50;1.90;;;;;;;25.91;28.72;98937.38;5039944;28;20399;-70
2021/07/24 10:30:08;;;;;;;8.73;2.38;;;;;;;25.83;29.11;98937.75;5033267;28;20156;-68
2021/07/24 10:32:37;;;;;;;6.20;2.10;;;;;;;25.79;28.93;98950.94;5045670;28;20037;-70
2021/07/24 10:35:06;;;;;;;8.55;2.20;;;;;;;25.72;29.06;98938.56;5036804;28;20444;-70
2021/07/24 10:37:34;;;;;;;9.48;2.15;;;;;;;25.89;29.27;98944.56;5039088;28;20445;-69
2021/07/24 10:40:36;;;;;;;7.32;1.90;;;;;;;25.86;28.88;98939.78;5035479;28;20045;-69
2021/07/24 10:43:03;;;;;;;7.53;2.00;;;;;;;25.77;29.28;98951.38;5059742;28;20045;-69
2021/07/24 10:45:51;;;;;;;8.02;2.25;;;;;;;25.72;29.14;98948.94;5021443;28;20144;-69
2021/07/24 10:48:26;;;;;;;7.90;2.17;;;;;;;25.65;29.58;98954.56;5040048;28;20053;-69
2021/07/24 10:51:14;;;;;;;9.60;2.40;;;;;;;25.52;29.63;98957.72;5045341;28;20037;-70
2021/07/24 10:54:06;;;;;;;8.45;2.30;;;;;;;25.41;30.11;98968.06;5044032;28;20052;-69
2021/07/24 10:56:38;;;;;;;10.43;2.25;;;;;;;25.37;30.31;98970.06;5040630;28;20115;-69
2021/07/24 10:59:23;;;;;;;8.65;2.20;;;;;;;25.27;30.28;98975.22;5059106;28;20076;-70
2021/07/24 11:01:51;;;;;;;9.53;2.10;;;;;;;25.27;30.15;98977.22;5050378;28;20063;-70
2021/07/24 11:04:35;;;;;;;;;;;;;;;25.20;30.29;98986.38;5035036;28;20130;-69
2021/07/24 11:07:34;;;;;;;8.05;2.00;;;;;;;25.22;30.41;98984.00;5043428;28;19921;-69
2021/07/24 11:10:05;;;;;;;13.55;2.38;;;;;;;25.17;30.24;98985.16;5031441;28;20462;-70
2021/07/24 11:12:37;;;;;;;7.95;2.08;;;;;;;25.19;30.08;98996.75;5042703;28;20082;-70
2021/07/24 11:15:03;;;;;;;7.57;2.00;;;;;;;25.18;30.07;98992.38;5048909;28;20040;-73
2021/07/24 11:17:29;;;;;;;8.63;2.10;;;;;;;25.22;29.63;98997.97;5036969;28;20483;-70
2021/07/24 11:20:25;;;;;;;5.53;1.67;;;;;;;25.24;29.42;98995.59;5046106;28;20141;-70
2021/07/24 11:23:06;;;;;;;6.65;1.70;;;;;;;25.31;29.15;99006.81;5035131;28;20319;-68
2021/07/24 11:25:34;;;;;;;6.07;1.77;;;;;;;25.31;29.20;99004.00;5042048;28;20045;-69
2021/07/24 11:28:02;;;;;;;7.72;2.35;;;;;;;25.31;29.61;99003.19;5042120;28;20041;-68
2021/07/24 11:30:28;;;;;;;8.30;2.20;;;;;;;25.35;29.86;99004.81;5040717;28;20100;-69
2021/07/24 11:32:56;;;;;;;10.40;2.30;;;;;;;25.38;29.66;99000.44;5040785;28;20045;-69
2021/07/24 11:35:27;;;;;;;14.88;2.28;;;;;;;25.37;30.15;99009.22;5037127;28;20133;-68
2021/07/24 11:37:53;;;;;;;11.18;2.30;;;;;;;25.42;30.45;99004.03;5034319;28;20057;-69